sensor_id;sensor_type;location;lat;lon;timestamp;P1;durP1;ratioP1;P2;durP2;ratioP2
20830;SDS011;10576;53.556;9.868;2024-03-25T00:01:30;324.25;;;75.45;;
20830;SDS011;10576;53.556;9.868;2024-03-25T00:03:56;326.67;;;76.70;;
20830;SDS011;10576;53.556;9.868;2024-03-25T00:06:21;325.30;;;76.23;;
20830;SDS011;10576;53.556;9.868;2024-03-25T00:08:47;325.15;;;77.00;;
20830;SDS011;10576;53.556;9.868;2024-03-25T00:11:13;327.48;;;78.60;;
20830;SDS011;10576;53.556;9.868;2024-03-25T00:13:39;325.40;;;78.22;;
20830;SDS011;10576;53.556;9.868;2024-03-25T00:16:05;325.27;;;76.53;;
20830;SDS011;10576;53.556;9.868;2024-03-25T00:18:32;325.55;;;77.18;;
20830;SDS011;10576;53.556;9.868;2024-03-25T00:20:58;326.33;;;78.18;;
20830;SDS011;10576;53.556;9.868;2024-03-25T00:23:24;326.38;;;77.13;;
20830;SDS011;10576;53.556;9.868;2024-03-25T00:25:50;325.83;;;76.73;;
20830;SDS011;10576;53.556;9.868;2024-03-25T00:28:17;326.40;;;76.15;;
20830;SDS011;10576;53.556;9.868;2024-03-25T00:30:44;327.98;;;78.18;;
20830;SDS011;10576;53.556;9.868;2024-03-25T00:33:09;323.73;;;74.88;;
20830;SDS011;10576;53.556;9.868;2024-03-25T00:35:36;325.63;;;75.82;;
20830;SDS011;10576;53.556;9.868;2024-03-25T00:38:02;327.15;;;77.93;;
20830;SDS011;10576;53.556;9.868;2024-03-25T00:40:29;324.00;;;75.03;;
20830;SDS011;10576;53.556;9.868;2024-03-25T00:42:55;326.50;;;77.60;;
20830;SDS011;10576;53.556;9.868;2024-03-25T00:45:21;325.45;;;76.95;;
20830;SDS011;10576;53.556;9.868;2024-03-25T00:47:47;326.55;;;76.70;;
20830;SDS011;10576;53.556;9.868;2024-03-25T00:50:13;324.75;;;75.18;;
20830;SDS011;10576;53.556;9.868;2024-03-25T00:52:40;326.83;;;77.40;;
20830;SDS011;10576;53.556;9.868;2024-03-25T00:55:05;326.08;;;77.40;;
20830;SDS011;10576;53.556;9.868;2024-03-25T00:57:33;326.55;;;77.65;;
20830;SDS011;10576;53.556;9.868;2024-03-25T00:59:59;325.97;;;76.93;;
20830;SDS011;10576;53.556;9.868;2024-03-25T01:02:24;327.85;;;78.55;;
20830;SDS011;10576;53.556;9.868;2024-03-25T01:04:52;325.38;;;76.30;;
20830;SDS011;10576;53.556;9.868;2024-03-25T01:07:19;328.60;;;77.75;;
20830;SDS011;10576;53.556;9.868;2024-03-25T01:09:45;327.53;;;77.27;;
20830;SDS011;10576;53.556;9.868;2024-03-25T01:12:11;328.57;;;76.80;;
20830;SDS011;10576;53.556;9.868;2024-03-25T01:14:36;321.38;;;73.70;;
20830;SDS011;10576;53.556;9.868;2024-03-25T01:17:02;324.48;;;76.25;;
20830;SDS011;10576;53.556;9.868;2024-03-25T01:19:29;324.38;;;74.80;;
20830;SDS011;10576;53.556;9.868;2024-03-25T01:21:55;324.63;;;75.43;;
20830;SDS011;10576;53.556;9.868;2024-03-25T01:24:21;326.13;;;77.00;;
20830;SDS011;10576;53.556;9.868;2024-03-25T01:26:47;325.08;;;75.88;;
20830;SDS011;10576;53.556;9.868;2024-03-25T01:29:13;324.63;;;76.70;;
20830;SDS011;10576;53.556;9.868;2024-03-25T01:31:39;323.48;;;74.88;;
20830;SDS011;10576;53.556;9.868;2024-03-25T01:34:05;326.92;;;75.90;;
20830;SDS011;10576;53.556;9.868;2024-03-25T01:36:31;324.13;;;76.22;;
20830;SDS011;10576;53.556;9.868;2024-03-25T01:38:57;323.10;;;74.20;;
20830;SDS011;10576;53.556;9.868;2024-03-25T01:41:23;325.53;;;76.53;;
20830;SDS011;10576;53.556;9.868;2024-03-25T01:43:49;329.77;;;78.30;;
20830;SDS011;10576;53.556;9.868;2024-03-25T01:46:19;324.70;;;76.00;;
20830;SDS011;10576;53.556;9.868;2024-03-25T01:48:49;328.33;;;78.45;;
20830;SDS011;10576;53.556;9.868;2024-03-25T01:51:18;327.45;;;78.45;;
20830;SDS011;10576;53.556;9.868;2024-03-25T01:53:44;328.08;;;77.32;;
20830;SDS011;10576;53.556;9.868;2024-03-25T01:56:11;325.30;;;76.07;;
20830;SDS011;10576;53.556;9.868;2024-03-25T01:58:39;324.13;;;75.80;;
20830;SDS011;10576;53.556;9.868;2024-03-25T02:01:05;329.37;;;79.07;;
20830;SDS011;10576;53.556;9.868;2024-03-25T02:03:31;329.70;;;80.00;;
20830;SDS011;10576;53.556;9.868;2024-03-25T02:05:59;322.23;;;74.15;;
20830;SDS011;10576;53.556;9.868;2024-03-25T02:08:26;329.58;;;77.95;;
20830;SDS011;10576;53.556;9.868;2024-03-25T02:10:53;329.88;;;79.43;;
20830;SDS011;10576;53.556;9.868;2024-03-25T02:13:20;325.63;;;75.78;;
20830;SDS011;10576;53.556;9.868;2024-03-25T02:15:46;328.55;;;77.78;;
20830;SDS011;10576;53.556;9.868;2024-03-25T02:18:15;331.55;;;82.07;;
20830;SDS011;10576;53.556;9.868;2024-03-25T02:20:41;325.88;;;76.85;;
20830;SDS011;10576;53.556;9.868;2024-03-25T02:23:07;322.88;;;73.50;;
20830;SDS011;10576;53.556;9.868;2024-03-25T02:25:35;329.30;;;78.72;;
20830;SDS011;10576;53.556;9.868;2024-03-25T02:28:03;328.77;;;77.57;;
20830;SDS011;10576;53.556;9.868;2024-03-25T02:30:29;324.67;;;75.55;;
20830;SDS011;10576;53.556;9.868;2024-03-25T02:32:55;326.75;;;76.50;;
20830;SDS011;10576;53.556;9.868;2024-03-25T02:35:22;328.10;;;77.10;;
20830;SDS011;10576;53.556;9.868;2024-03-25T02:37:49;326.13;;;75.10;;
20830;SDS011;10576;53.556;9.868;2024-03-25T02:40:16;326.85;;;75.68;;
20830;SDS011;10576;53.556;9.868;2024-03-25T02:42:42;326.38;;;75.22;;
20830;SDS011;10576;53.556;9.868;2024-03-25T02:45:08;325.75;;;74.40;;
20830;SDS011;10576;53.556;9.868;2024-03-25T02:47:34;326.85;;;76.85;;
20830;SDS011;10576;53.556;9.868;2024-03-25T02:50:00;325.90;;;75.45;;
20830;SDS011;10576;53.556;9.868;2024-03-25T02:52:26;326.33;;;76.57;;
20830;SDS011;10576;53.556;9.868;2024-03-25T02:54:53;327.20;;;77.88;;
20830;SDS011;10576;53.556;9.868;2024-03-25T02:57:22;328.13;;;78.18;;
20830;SDS011;10576;53.556;9.868;2024-03-25T02:59:48;326.70;;;77.55;;
20830;SDS011;10576;53.556;9.868;2024-03-25T03:02:13;324.50;;;75.88;;
20830;SDS011;10576;53.556;9.868;2024-03-25T03:04:39;326.93;;;77.60;;
20830;SDS011;10576;53.556;9.868;2024-03-25T03:07:05;326.95;;;78.07;;
20830;SDS011;10576;53.556;9.868;2024-03-25T03:09:31;326.83;;;76.40;;
20830;SDS011;10576;53.556;9.868;2024-03-25T03:11:57;330.60;;;79.32;;
20830;SDS011;10576;53.556;9.868;2024-03-25T03:14:23;327.17;;;76.65;;
20830;SDS011;10576;53.556;9.868;2024-03-25T03:16:49;326.52;;;76.10;;
20830;SDS011;10576;53.556;9.868;2024-03-25T03:19:19;324.00;;;74.13;;
20830;SDS011;10576;53.556;9.868;2024-03-25T03:21:45;326.67;;;76.57;;
20830;SDS011;10576;53.556;9.868;2024-03-25T03:24:11;326.27;;;76.32;;
20830;SDS011;10576;53.556;9.868;2024-03-25T03:26:36;326.25;;;75.93;;
20830;SDS011;10576;53.556;9.868;2024-03-25T03:29:02;325.30;;;74.93;;
20830;SDS011;10576;53.556;9.868;2024-03-25T03:31:29;327.92;;;77.80;;
20830;SDS011;10576;53.556;9.868;2024-03-25T03:33:55;329.67;;;79.22;;
20830;SDS011;10576;53.556;9.868;2024-03-25T03:36:21;327.45;;;77.85;;
20830;SDS011;10576;53.556;9.868;2024-03-25T03:38:49;327.77;;;77.50;;
20830;SDS011;10576;53.556;9.868;2024-03-25T03:41:16;327.10;;;76.60;;
20830;SDS011;10576;53.556;9.868;2024-03-25T03:43:41;330.90;;;78.43;;
20830;SDS011;10576;53.556;9.868;2024-03-25T03:46:07;327.17;;;75.90;;
20830;SDS011;10576;53.556;9.868;2024-03-25T03:48:33;331.10;;;79.65;;
20830;SDS011;10576;53.556;9.868;2024-03-25T03:51:00;328.95;;;77.10;;
20830;SDS011;10576;53.556;9.868;2024-03-25T03:53:26;325.98;;;76.47;;
20830;SDS011;10576;53.556;9.868;2024-03-25T03:55:53;328.35;;;77.05;;
20830;SDS011;10576;53.556;9.868;2024-03-25T03:58:22;330.38;;;78.80;;
20830;SDS011;10576;53.556;9.868;2024-03-25T04:00:49;328.27;;;77.03;;
20830;SDS011;10576;53.556;9.868;2024-03-25T04:03:15;325.50;;;75.27;;
20830;SDS011;10576;53.556;9.868;2024-03-25T04:05:41;327.65;;;76.13;;
20830;SDS011;10576;53.556;9.868;2024-03-25T04:08:07;332.58;;;79.82;;
20830;SDS011;10576;53.556;9.868;2024-03-25T04:10:33;326.27;;;76.75;;
20830;SDS011;10576;53.556;9.868;2024-03-25T04:13:00;328.17;;;77.03;;
20830;SDS011;10576;53.556;9.868;2024-03-25T04:15:25;327.02;;;76.05;;
20830;SDS011;10576;53.556;9.868;2024-03-25T04:17:51;326.63;;;75.93;;
20830;SDS011;10576;53.556;9.868;2024-03-25T04:20:17;328.08;;;78.70;;
20830;SDS011;10576;53.556;9.868;2024-03-25T04:22:44;328.08;;;77.82;;
20830;SDS011;10576;53.556;9.868;2024-03-25T04:25:10;328.25;;;77.95;;
20830;SDS011;10576;53.556;9.868;2024-03-25T04:27:40;325.08;;;75.47;;
20830;SDS011;10576;53.556;9.868;2024-03-25T04:30:06;326.45;;;76.55;;
20830;SDS011;10576;53.556;9.868;2024-03-25T04:32:33;329.80;;;79.63;;
20830;SDS011;10576;53.556;9.868;2024-03-25T04:34:59;325.67;;;76.38;;
20830;SDS011;10576;53.556;9.868;2024-03-25T04:37:25;329.52;;;78.13;;
20830;SDS011;10576;53.556;9.868;2024-03-25T04:39:53;327.20;;;76.75;;
20830;SDS011;10576;53.556;9.868;2024-03-25T04:42:19;326.00;;;75.53;;
20830;SDS011;10576;53.556;9.868;2024-03-25T04:44:44;326.75;;;77.88;;
20830;SDS011;10576;53.556;9.868;2024-03-25T04:47:10;327.38;;;76.20;;
20830;SDS011;10576;53.556;9.868;2024-03-25T04:49:37;327.08;;;76.85;;
20830;SDS011;10576;53.556;9.868;2024-03-25T04:52:03;328.00;;;77.53;;
20830;SDS011;10576;53.556;9.868;2024-03-25T04:54:29;328.35;;;76.78;;
20830;SDS011;10576;53.556;9.868;2024-03-25T04:56:55;326.60;;;75.10;;
20830;SDS011;10576;53.556;9.868;2024-03-25T04:59:21;327.63;;;76.80;;
20830;SDS011;10576;53.556;9.868;2024-03-25T05:01:47;329.08;;;77.95;;
20830;SDS011;10576;53.556;9.868;2024-03-25T05:04:12;326.48;;;75.70;;
20830;SDS011;10576;53.556;9.868;2024-03-25T05:06:39;326.63;;;77.20;;
20830;SDS011;10576;53.556;9.868;2024-03-25T05:09:05;327.73;;;76.78;;
20830;SDS011;10576;53.556;9.868;2024-03-25T05:11:32;329.48;;;77.50;;
20830;SDS011;10576;53.556;9.868;2024-03-25T05:13:58;328.58;;;77.25;;
20830;SDS011;10576;53.556;9.868;2024-03-25T05:16:24;327.73;;;75.93;;
20830;SDS011;10576;53.556;9.868;2024-03-25T05:18:49;330.83;;;78.97;;
20830;SDS011;10576;53.556;9.868;2024-03-25T05:21:15;332.27;;;78.70;;
20830;SDS011;10576;53.556;9.868;2024-03-25T05:23:41;331.60;;;79.97;;
20830;SDS011;10576;53.556;9.868;2024-03-25T05:26:07;328.67;;;76.03;;
20830;SDS011;10576;53.556;9.868;2024-03-25T05:28:33;328.87;;;76.20;;
20830;SDS011;10576;53.556;9.868;2024-03-25T05:31:06;325.83;;;74.70;;
20830;SDS011;10576;53.556;9.868;2024-03-25T05:33:32;330.70;;;78.20;;
20830;SDS011;10576;53.556;9.868;2024-03-25T05:35:59;329.60;;;77.43;;
20830;SDS011;10576;53.556;9.868;2024-03-25T05:38:25;328.80;;;75.60;;
20830;SDS011;10576;53.556;9.868;2024-03-25T05:40:51;326.83;;;77.10;;
20830;SDS011;10576;53.556;9.868;2024-03-25T05:43:17;326.52;;;75.20;;
20830;SDS011;10576;53.556;9.868;2024-03-25T05:45:52;327.67;;;76.63;;
20830;SDS011;10576;53.556;9.868;2024-03-25T05:48:19;329.25;;;77.20;;
20830;SDS011;10576;53.556;9.868;2024-03-25T05:50:45;326.30;;;76.38;;
20830;SDS011;10576;53.556;9.868;2024-03-25T05:53:11;325.77;;;74.57;;
20830;SDS011;10576;53.556;9.868;2024-03-25T05:55:37;331.35;;;80.55;;
20830;SDS011;10576;53.556;9.868;2024-03-25T05:58:03;327.40;;;76.57;;
20830;SDS011;10576;53.556;9.868;2024-03-25T06:00:29;329.33;;;78.07;;
20830;SDS011;10576;53.556;9.868;2024-03-25T06:02:56;326.15;;;74.68;;
20830;SDS011;10576;53.556;9.868;2024-03-25T06:05:22;325.95;;;76.05;;
20830;SDS011;10576;53.556;9.868;2024-03-25T06:07:48;324.98;;;74.70;;
20830;SDS011;10576;53.556;9.868;2024-03-25T06:10:14;326.15;;;75.85;;
20830;SDS011;10576;53.556;9.868;2024-03-25T06:12:40;328.70;;;76.35;;
20830;SDS011;10576;53.556;9.868;2024-03-25T06:15:06;326.67;;;75.38;;
20830;SDS011;10576;53.556;9.868;2024-03-25T06:17:32;325.67;;;76.23;;
20830;SDS011;10576;53.556;9.868;2024-03-25T06:19:58;328.88;;;78.60;;
20830;SDS011;10576;53.556;9.868;2024-03-25T06:22:24;327.70;;;78.05;;
20830;SDS011;10576;53.556;9.868;2024-03-25T06:24:51;322.85;;;76.40;;
20830;SDS011;10576;53.556;9.868;2024-03-25T06:27:18;326.58;;;77.22;;
20830;SDS011;10576;53.556;9.868;2024-03-25T06:29:44;325.00;;;76.30;;
20830;SDS011;10576;53.556;9.868;2024-03-25T06:32:11;334.13;;;81.65;;
20830;SDS011;10576;53.556;9.868;2024-03-25T06:34:56;322.05;;;73.90;;
20830;SDS011;10576;53.556;9.868;2024-03-25T06:37:25;330.30;;;78.83;;
20830;SDS011;10576;53.556;9.868;2024-03-25T06:39:51;326.25;;;76.90;;
20830;SDS011;10576;53.556;9.868;2024-03-25T06:42:18;326.30;;;75.97;;
20830;SDS011;10576;53.556;9.868;2024-03-25T06:44:44;327.33;;;78.68;;
20830;SDS011;10576;53.556;9.868;2024-03-25T06:47:14;330.30;;;78.80;;
20830;SDS011;10576;53.556;9.868;2024-03-25T06:49:40;325.67;;;75.28;;
20830;SDS011;10576;53.556;9.868;2024-03-25T06:52:06;323.88;;;73.53;;
20830;SDS011;10576;53.556;9.868;2024-03-25T06:54:32;325.48;;;74.72;;
20830;SDS011;10576;53.556;9.868;2024-03-25T06:56:58;326.33;;;76.32;;
20830;SDS011;10576;53.556;9.868;2024-03-25T06:59:24;325.03;;;75.87;;
20830;SDS011;10576;53.556;9.868;2024-03-25T07:01:50;327.67;;;77.30;;
20830;SDS011;10576;53.556;9.868;2024-03-25T07:04:16;327.05;;;77.05;;
20830;SDS011;10576;53.556;9.868;2024-03-25T07:06:42;326.73;;;77.50;;
20830;SDS011;10576;53.556;9.868;2024-03-25T07:09:07;323.55;;;74.57;;
20830;SDS011;10576;53.556;9.868;2024-03-25T07:11:36;327.13;;;77.18;;
20830;SDS011;10576;53.556;9.868;2024-03-25T07:14:01;327.48;;;78.10;;
20830;SDS011;10576;53.556;9.868;2024-03-25T07:16:27;328.00;;;77.00;;
20830;SDS011;10576;53.556;9.868;2024-03-25T07:18:53;330.23;;;78.60;;
20830;SDS011;10576;53.556;9.868;2024-03-25T07:21:19;329.88;;;78.93;;
20830;SDS011;10576;53.556;9.868;2024-03-25T07:23:45;328.65;;;79.88;;
20830;SDS011;10576;53.556;9.868;2024-03-25T07:26:11;323.17;;;76.05;;
20830;SDS011;10576;53.556;9.868;2024-03-25T07:28:36;327.07;;;77.33;;
20830;SDS011;10576;53.556;9.868;2024-03-25T07:31:02;328.40;;;79.27;;
20830;SDS011;10576;53.556;9.868;2024-03-25T07:33:28;331.33;;;81.05;;
20830;SDS011;10576;53.556;9.868;2024-03-25T07:35:54;326.93;;;78.17;;
20830;SDS011;10576;53.556;9.868;2024-03-25T07:38:20;327.95;;;79.20;;
20830;SDS011;10576;53.556;9.868;2024-03-25T07:40:46;329.42;;;79.47;;
20830;SDS011;10576;53.556;9.868;2024-03-25T07:43:12;328.85;;;78.05;;
20830;SDS011;10576;53.556;9.868;2024-03-25T07:45:38;330.35;;;81.72;;
20830;SDS011;10576;53.556;9.868;2024-03-25T07:48:04;330.73;;;79.93;;
20830;SDS011;10576;53.556;9.868;2024-03-25T07:50:33;326.60;;;78.28;;
20830;SDS011;10576;53.556;9.868;2024-03-25T07:52:58;328.92;;;78.25;;
20830;SDS011;10576;53.556;9.868;2024-03-25T07:55:24;334.33;;;83.00;;
20830;SDS011;10576;53.556;9.868;2024-03-25T07:57:50;329.33;;;80.57;;
20830;SDS011;10576;53.556;9.868;2024-03-25T08:00:16;330.35;;;80.75;;
20830;SDS011;10576;53.556;9.868;2024-03-25T08:02:42;329.60;;;79.15;;
20830;SDS011;10576;53.556;9.868;2024-03-25T08:05:08;327.45;;;80.72;;
20830;SDS011;10576;53.556;9.868;2024-03-25T08:07:34;328.45;;;80.55;;
20830;SDS011;10576;53.556;9.868;2024-03-25T08:09:59;328.65;;;82.30;;
20830;SDS011;10576;53.556;9.868;2024-03-25T08:12:25;329.98;;;81.60;;
20830;SDS011;10576;53.556;9.868;2024-03-25T08:14:51;329.83;;;83.35;;
20830;SDS011;10576;53.556;9.868;2024-03-25T08:17:17;329.13;;;83.45;;
20830;SDS011;10576;53.556;9.868;2024-03-25T08:19:43;332.33;;;85.60;;
20830;SDS011;10576;53.556;9.868;2024-03-25T08:22:08;331.65;;;83.65;;
20830;SDS011;10576;53.556;9.868;2024-03-25T08:24:34;327.27;;;82.40;;
20830;SDS011;10576;53.556;9.868;2024-03-25T08:27:00;329.33;;;84.40;;
20830;SDS011;10576;53.556;9.868;2024-03-25T08:29:26;330.88;;;83.75;;
20830;SDS011;10576;53.556;9.868;2024-03-25T08:31:51;328.60;;;83.10;;
20830;SDS011;10576;53.556;9.868;2024-03-25T08:34:17;327.87;;;81.50;;
20830;SDS011;10576;53.556;9.868;2024-03-25T08:36:43;330.88;;;84.90;;
20830;SDS011;10576;53.556;9.868;2024-03-25T08:39:09;328.13;;;83.53;;
20830;SDS011;10576;53.556;9.868;2024-03-25T08:41:35;328.33;;;83.80;;
20830;SDS011;10576;53.556;9.868;2024-03-25T08:44:01;334.40;;;89.03;;
20830;SDS011;10576;53.556;9.868;2024-03-25T08:46:27;334.95;;;89.57;;
20830;SDS011;10576;53.556;9.868;2024-03-25T08:48:52;330.52;;;87.80;;
20830;SDS011;10576;53.556;9.868;2024-03-25T08:51:18;330.00;;;85.55;;
20830;SDS011;10576;53.556;9.868;2024-03-25T08:53:44;335.27;;;90.07;;
20830;SDS011;10576;53.556;9.868;2024-03-25T08:56:09;335.13;;;90.13;;
20830;SDS011;10576;53.556;9.868;2024-03-25T08:58:35;335.90;;;90.95;;
20830;SDS011;10576;53.556;9.868;2024-03-25T09:01:01;331.03;;;86.87;;
20830;SDS011;10576;53.556;9.868;2024-03-25T09:03:27;331.55;;;87.32;;
20830;SDS011;10576;53.556;9.868;2024-03-25T09:05:55;334.52;;;88.97;;
20830;SDS011;10576;53.556;9.868;2024-03-25T09:08:21;326.23;;;82.80;;
20830;SDS011;10576;53.556;9.868;2024-03-25T09:10:47;330.77;;;85.45;;
20830;SDS011;10576;53.556;9.868;2024-03-25T09:13:29;330.10;;;85.47;;
20830;SDS011;10576;53.556;9.868;2024-03-25T09:15:55;325.60;;;83.43;;
20830;SDS011;10576;53.556;9.868;2024-03-25T09:18:21;334.88;;;89.82;;
20830;SDS011;10576;53.556;9.868;2024-03-25T09:20:46;334.38;;;89.80;;
20830;SDS011;10576;53.556;9.868;2024-03-25T09:23:12;332.00;;;88.30;;
20830;SDS011;10576;53.556;9.868;2024-03-25T09:25:38;331.02;;;87.10;;
20830;SDS011;10576;53.556;9.868;2024-03-25T09:28:06;330.75;;;87.50;;
20830;SDS011;10576;53.556;9.868;2024-03-25T09:30:32;335.92;;;92.20;;
20830;SDS011;10576;53.556;9.868;2024-03-25T09:32:58;336.33;;;91.38;;
20830;SDS011;10576;53.556;9.868;2024-03-25T09:35:24;340.05;;;99.55;;
20830;SDS011;10576;53.556;9.868;2024-03-25T09:37:50;335.08;;;92.07;;
20830;SDS011;10576;53.556;9.868;2024-03-25T09:40:15;335.90;;;93.07;;
20830;SDS011;10576;53.556;9.868;2024-03-25T09:42:42;330.67;;;86.38;;
20830;SDS011;10576;53.556;9.868;2024-03-25T09:45:13;334.40;;;91.55;;
20830;SDS011;10576;53.556;9.868;2024-03-25T09:47:42;335.52;;;93.75;;
20830;SDS011;10576;53.556;9.868;2024-03-25T09:50:11;333.70;;;91.90;;
20830;SDS011;10576;53.556;9.868;2024-03-25T09:52:38;334.88;;;91.47;;
20830;SDS011;10576;53.556;9.868;2024-03-25T09:55:04;330.73;;;88.32;;
20830;SDS011;10576;53.556;9.868;2024-03-25T09:57:30;333.00;;;89.63;;
20830;SDS011;10576;53.556;9.868;2024-03-25T09:59:56;333.35;;;89.88;;
20830;SDS011;10576;53.556;9.868;2024-03-25T10:02:23;334.33;;;90.57;;
20830;SDS011;10576;53.556;9.868;2024-03-25T10:04:51;334.42;;;91.78;;
20830;SDS011;10576;53.556;9.868;2024-03-25T10:07:23;333.80;;;88.80;;
20830;SDS011;10576;53.556;9.868;2024-03-25T10:09:50;332.45;;;89.10;;
20830;SDS011;10576;53.556;9.868;2024-03-25T10:12:16;332.00;;;88.47;;
20830;SDS011;10576;53.556;9.868;2024-03-25T10:14:42;335.20;;;91.13;;
20830;SDS011;10576;53.556;9.868;2024-03-25T10:17:09;332.98;;;90.63;;
20830;SDS011;10576;53.556;9.868;2024-03-25T10:19:35;335.02;;;91.65;;
20830;SDS011;10576;53.556;9.868;2024-03-25T10:22:02;342.55;;;98.07;;
20830;SDS011;10576;53.556;9.868;2024-03-25T10:24:36;339.42;;;96.35;;
20830;SDS011;10576;53.556;9.868;2024-03-25T10:27:05;337.92;;;95.63;;
20830;SDS011;10576;53.556;9.868;2024-03-25T10:29:31;336.73;;;95.03;;
20830;SDS011;10576;53.556;9.868;2024-03-25T10:32:01;338.15;;;97.53;;
20830;SDS011;10576;53.556;9.868;2024-03-25T10:34:29;341.30;;;97.90;;
20830;SDS011;10576;53.556;9.868;2024-03-25T10:36:56;333.98;;;95.10;;
20830;SDS011;10576;53.556;9.868;2024-03-25T10:39:26;338.50;;;95.43;;
20830;SDS011;10576;53.556;9.868;2024-03-25T10:41:55;334.33;;;93.53;;
20830;SDS011;10576;53.556;9.868;2024-03-25T10:44:22;337.05;;;94.63;;
20830;SDS011;10576;53.556;9.868;2024-03-25T10:47:11;337.63;;;96.22;;
20830;SDS011;10576;53.556;9.868;2024-03-25T10:49:51;339.65;;;98.82;;
20830;SDS011;10576;53.556;9.868;2024-03-25T10:52:23;340.23;;;99.97;;
20830;SDS011;10576;53.556;9.868;2024-03-25T10:54:50;338.65;;;96.15;;
20830;SDS011;10576;53.556;9.868;2024-03-25T10:57:16;339.38;;;98.60;;
20830;SDS011;10576;53.556;9.868;2024-03-25T10:59:45;340.83;;;101.47;;
20830;SDS011;10576;53.556;9.868;2024-03-25T11:02:11;343.38;;;106.43;;
20830;SDS011;10576;53.556;9.868;2024-03-25T11:04:37;339.70;;;100.95;;
20830;SDS011;10576;53.556;9.868;2024-03-25T11:07:12;342.80;;;103.47;;
20830;SDS011;10576;53.556;9.868;2024-03-25T11:09:39;342.15;;;102.93;;
20830;SDS011;10576;53.556;9.868;2024-03-25T11:12:05;341.02;;;100.53;;
20830;SDS011;10576;53.556;9.868;2024-03-25T11:14:31;344.10;;;103.03;;
20830;SDS011;10576;53.556;9.868;2024-03-25T11:16:59;341.23;;;100.60;;
20830;SDS011;10576;53.556;9.868;2024-03-25T11:19:25;340.75;;;99.80;;
20830;SDS011;10576;53.556;9.868;2024-03-25T11:21:52;341.25;;;101.28;;
20830;SDS011;10576;53.556;9.868;2024-03-25T11:24:30;340.73;;;101.97;;
20830;SDS011;10576;53.556;9.868;2024-03-25T11:26:56;339.80;;;100.07;;
20830;SDS011;10576;53.556;9.868;2024-03-25T11:29:22;334.95;;;94.72;;
20830;SDS011;10576;53.556;9.868;2024-03-25T11:31:52;340.88;;;101.43;;
20830;SDS011;10576;53.556;9.868;2024-03-25T11:34:18;339.77;;;99.85;;
20830;SDS011;10576;53.556;9.868;2024-03-25T11:36:44;341.33;;;102.03;;
20830;SDS011;10576;53.556;9.868;2024-03-25T11:39:11;337.73;;;98.35;;
20830;SDS011;10576;53.556;9.868;2024-03-25T11:41:40;342.92;;;101.60;;
20830;SDS011;10576;53.556;9.868;2024-03-25T11:44:07;343.85;;;102.82;;
20830;SDS011;10576;53.556;9.868;2024-03-25T11:46:37;335.83;;;96.75;;
20830;SDS011;10576;53.556;9.868;2024-03-25T11:49:06;337.85;;;98.53;;
20830;SDS011;10576;53.556;9.868;2024-03-25T11:51:34;340.85;;;100.70;;
20830;SDS011;10576;53.556;9.868;2024-03-25T11:54:02;343.10;;;99.03;;
20830;SDS011;10576;53.556;9.868;2024-03-25T11:56:29;337.88;;;97.18;;
20830;SDS011;10576;53.556;9.868;2024-03-25T11:59:01;337.67;;;97.23;;
20830;SDS011;10576;53.556;9.868;2024-03-25T12:01:28;341.60;;;99.82;;
20830;SDS011;10576;53.556;9.868;2024-03-25T12:03:54;342.25;;;101.18;;
20830;SDS011;10576;53.556;9.868;2024-03-25T12:06:20;343.73;;;103.22;;
20830;SDS011;10576;53.556;9.868;2024-03-25T12:08:46;335.60;;;96.93;;
20830;SDS011;10576;53.556;9.868;2024-03-25T12:11:32;343.35;;;102.45;;
20830;SDS011;10576;53.556;9.868;2024-03-25T12:13:58;341.17;;;99.40;;
20830;SDS011;10576;53.556;9.868;2024-03-25T12:16:25;337.20;;;96.78;;
20830;SDS011;10576;53.556;9.868;2024-03-25T12:18:51;342.67;;;102.25;;
20830;SDS011;10576;53.556;9.868;2024-03-25T12:21:20;341.83;;;98.03;;
20830;SDS011;10576;53.556;9.868;2024-03-25T12:23:47;345.75;;;102.20;;
20830;SDS011;10576;53.556;9.868;2024-03-25T12:26:13;339.90;;;98.65;;
20830;SDS011;10576;53.556;9.868;2024-03-25T12:28:39;341.47;;;98.87;;
20830;SDS011;10576;53.556;9.868;2024-03-25T12:31:09;340.02;;;98.55;;
20830;SDS011;10576;53.556;9.868;2024-03-25T12:33:40;336.70;;;94.50;;
20830;SDS011;10576;53.556;9.868;2024-03-25T12:36:06;338.30;;;97.67;;
20830;SDS011;10576;53.556;9.868;2024-03-25T12:38:32;337.42;;;94.10;;
20830;SDS011;10576;53.556;9.868;2024-03-25T12:41:07;339.83;;;98.15;;
20830;SDS011;10576;53.556;9.868;2024-03-25T12:43:34;335.83;;;94.90;;
20830;SDS011;10576;53.556;9.868;2024-03-25T12:46:00;338.17;;;95.38;;
20830;SDS011;10576;53.556;9.868;2024-03-25T12:48:29;339.40;;;96.73;;
20830;SDS011;10576;53.556;9.868;2024-03-25T12:50:54;339.55;;;97.30;;
20830;SDS011;10576;53.556;9.868;2024-03-25T12:53:20;339.15;;;97.93;;
20830;SDS011;10576;53.556;9.868;2024-03-25T12:55:46;346.15;;;101.80;;
20830;SDS011;10576;53.556;9.868;2024-03-25T12:58:12;341.13;;;100.55;;
20830;SDS011;10576;53.556;9.868;2024-03-25T13:00:38;338.40;;;99.75;;
20830;SDS011;10576;53.556;9.868;2024-03-25T13:03:05;339.60;;;99.65;;
20830;SDS011;10576;53.556;9.868;2024-03-25T13:05:32;340.98;;;99.30;;
20830;SDS011;10576;53.556;9.868;2024-03-25T13:07:59;342.08;;;100.82;;
20830;SDS011;10576;53.556;9.868;2024-03-25T13:10:25;341.92;;;102.43;;
20830;SDS011;10576;53.556;9.868;2024-03-25T13:12:51;339.23;;;99.07;;
20830;SDS011;10576;53.556;9.868;2024-03-25T13:15:17;341.13;;;100.05;;
20830;SDS011;10576;53.556;9.868;2024-03-25T13:17:42;338.30;;;99.13;;
20830;SDS011;10576;53.556;9.868;2024-03-25T13:20:08;337.13;;;94.50;;
20830;SDS011;10576;53.556;9.868;2024-03-25T13:22:34;341.42;;;98.90;;
20830;SDS011;10576;53.556;9.868;2024-03-25T13:25:00;337.73;;;95.03;;
20830;SDS011;10576;53.556;9.868;2024-03-25T13:27:26;338.42;;;96.80;;
20830;SDS011;10576;53.556;9.868;2024-03-25T13:29:52;336.20;;;95.75;;
20830;SDS011;10576;53.556;9.868;2024-03-25T13:32:19;340.20;;;95.73;;
20830;SDS011;10576;53.556;9.868;2024-03-25T13:34:45;338.40;;;95.55;;
20830;SDS011;10576;53.556;9.868;2024-03-25T13:37:11;340.80;;;97.38;;
20830;SDS011;10576;53.556;9.868;2024-03-25T13:39:37;340.15;;;97.10;;
20830;SDS011;10576;53.556;9.868;2024-03-25T13:42:03;339.27;;;96.20;;
20830;SDS011;10576;53.556;9.868;2024-03-25T13:44:29;346.08;;;100.50;;
20830;SDS011;10576;53.556;9.868;2024-03-25T13:46:55;338.20;;;94.95;;
20830;SDS011;10576;53.556;9.868;2024-03-25T13:49:21;338.17;;;94.13;;
20830;SDS011;10576;53.556;9.868;2024-03-25T13:51:50;339.60;;;94.40;;
20830;SDS011;10576;53.556;9.868;2024-03-25T13:54:21;343.05;;;98.70;;
20830;SDS011;10576;53.556;9.868;2024-03-25T13:56:46;340.77;;;99.45;;
20830;SDS011;10576;53.556;9.868;2024-03-25T13:59:13;343.05;;;101.75;;
20830;SDS011;10576;53.556;9.868;2024-03-25T14:01:38;344.17;;;101.77;;
20830;SDS011;10576;53.556;9.868;2024-03-25T14:04:05;342.60;;;101.03;;
20830;SDS011;10576;53.556;9.868;2024-03-25T14:06:31;343.35;;;101.35;;